ADDS METAR Data INFO
IDs: Format: Raw Decoded Include TAF

Data at: 1353 UTC 26 May 2018

Region: TOP
KATL 261252Z 17005KT 7SM BKN006 OVC010 22/20 A3000 RMK AO2 SLP151 CIG 005V008 T02170200

KBOS 261254Z 26013G21KT 10SM FEW090 BKN250 26/15 A2975 RMK AO2 SLP074 T02610150

KBWI 261254Z 21006KT 10SM FEW140 FEW200 26/21 A2987 RMK AO2 SLP114 T02560206

KCLE 261351Z 24005KT 10SM BKN110 BKN140 OVC200 23/16 A2987 RMK AO2 SLP108 T02330161 $

KCLT 261252Z 19006KT 5SM BR BKN006 OVC010 22/22 A3000 RMK SLP154 T02200220

KCVG 261252Z 21007KT 10SM FEW080 SCT150 BKN200 23/18 A2989 RMK AO2 SLP113 T02280183

KDCA 261252Z 18006KT 10SM SCT140 SCT250 24/20 A2990 RMK AO2 SLP123 T02440200

KDEN 261253Z 23007KT 10SM CLR 16/08 A2996 RMK AO2 SLP062 T01610083

KDFW 261253Z 23006KT 10SM FEW120 23/19 A2983 RMK AO2 SLP092 T02330194

KDTW 261253Z 22006KT 8SM FEW090 BKN120 OVC200 21/14 A2982 RMK AO2 SLP094 T02110139

KEWR 261351Z 23005KT 10SM FEW080 FEW140 BKN250 28/20 A2983 RMK AO2 SLP099 T02780200

KFLL 261348Z 11014KT 10SM -RA BKN018 BKN070 OVC120 26/24 A2994 RMK AO2 RAB37 P0000

KIAD 261252Z 20005KT 10SM SCT140 SCT250 25/21 A2989 RMK AO2 SLP120 T02500206

KIAH 261253Z 00000KT 10SM SCT011 SCT021 BKN180 BKN250 26/24 A2986 RMK AO2 SLP112 T02610244 $

KJFK 261351Z 23013KT 10SM FEW080 SCT250 26/21 A2984 RMK AO2 SLP105 T02560206

KLAS 261256Z 16011G18KT 10SM CLR 17/03 A2980 RMK AO2 SLP071 T01720033

KLAX 261253Z VRB04KT 10SM BKN016 14/11 A3000 RMK AO2 SLP156 T01440111

KLGA 261351Z 25004KT 10SM FEW075 FEW200 SCT250 28/18 A2982 RMK AO2 SLP098 T02830183

KMCO 261253Z 10008KT 10SM OVC250 25/22 A2998 RMK AO2 SLP151 T02500222

KMDW 261253Z 25006KT 10SM FEW110 SCT140 BKN250 22/19 A2978 RMK AO2 SLP073 T02220194

KMEM 261254Z COR 17006KT 10SM FEW015 FEW050 BKN160 BKN250 23/22 A2990 RMK AO2 CB DSNT SW-NW MOV NE SLP122 T02280217 $

KMIA 261253Z 09010KT 9SM -RA SCT022 BKN095 OVC130 26/24 A2993 RMK AO2 RAB16 SLP136 P0000 T02560239 $

KMSP 261253Z 22008KT 10SM CLR 23/17 A2972 RMK AO2 SLP057 T02280167 $

KORD 261351Z 27005KT 10SM BKN100 BKN250 24/16 A2978 RMK AO2 SLP078 T02390156

KPDX 261253Z 30003KT 10SM FEW030 OVC043 12/06 A3016 RMK AO2 SLP211 T01170061

KPHL 261254Z 24009KT 10SM SCT100 BKN150 OVC250 24/19 A2987 RMK AO2 SLP115 T02440194 $

KPHX 261351Z 10004KT 10SM FEW005 FEW140 BKN200 BKN250 23/03 A2982 RMK AO2 SLP080 FU FEW005 DSNT NW T02280033

KPIT 261351Z 25005KT 10SM BKN250 26/17 A2989 RMK AO2 SLP119 T02560172

KSAN 261351Z 29005KT 10SM BKN022 BKN038 16/12 A3005 RMK AO2 SLP176 T01610117

KSEA 261253Z 12005KT 10SM BKN023 BKN039 OVC080 11/07 A3012 RMK AO2 SLP205 T01110067

KSFO 261256Z 27018KT 10SM FEW007 BKN010 OVC015 13/09 A3006 RMK AO2 SLP179 T01330089

KSLC 261254Z 14005KT 10SM BKN200 17/03 A2984 RMK A02 SLP051 T01670028

KSTL 261351Z VRB03KT 10SM FEW040 BKN250 25/21 A2987 RMK AO2 SLP102 T02500211

KTPA 261253Z 00000KT 10SM SCT041 BKN075 OVC140 24/21 A2996 RMK AO2 SLP145 SHRA DSNT S-W T02390211